Karewood Brave — C6CY8 — position and weather

sailwx.info

Track history (hours):
 
Tides and Currents Weather Stations Pressure Air Temp Water Temp Dewpoint Dewpoint Depression Visibility Wind Speed Wind Dir Waves Ship Positions

Karewood Brave

Last reported at 2017-Dec-14 12:19 UTC. Time now 2017-Dec-15 16:05 UTC.
Position N 45°11' E 036°29'.

Length 127 m; draft 3.6 m.

Type: Cargo ship. MMSI: 311000611.

Date/timePositionNaut miles runAvg speedWind from/ knotsBaromVisibWave heightAir tempDewpointWater temp
2017-Dec-14 12:19N 45°11' E 036°29'0 0.0
2017-Dec-14 11:58N 45°11' E 036°29'0 0.0
2017-Dec-14 07:46N 45°11' E 036°29'0 0.0
2017-Dec-14 06:07N 45°11' E 036°29'0 0.0
2017-Dec-14 05:43N 45°11' E 036°29'0 0.2
2017-Dec-14 05:24N 45°11' E 036°29'1 3.0
2017-Dec-14 04:58N 45°10' E 036°29'412 8.9
2017-Dec-12 06:41N 41°01' E 028°60'2 9.3
2017-Dec-12 06:27N 40°59' E 028°60'3 6.1
2017-Dec-12 06:00N 40°56' E 028°59'2 4.2
2017-Dec-12 05:28N 40°57' E 028°56'2 0.0
2017-Dec-10 03:24N 40°58' E 028°55'1 3.0
2017-Dec-10 02:59N 40°59' E 028°57'2 4.5
2017-Dec-10 02:26N 40°56' E 028°58'4 8.7
2017-Dec-10 02:00N 40°53' E 028°54'4 8.8
2017-Dec-10 01:30N 40°51' E 028°50'  
Track history (hours):
 
Tides and Currents Weather Stations Pressure Air Temp Water Temp Dewpoint Dewpoint Depression Visibility Wind Speed Wind Dir Waves Ship Positions

Karewood Brave

Last reported at 2017-Dec-14 12:19 UTC. Time now 2017-Dec-15 16:05 UTC.
Position N 45°11' E 036°29'.

Length 127 m; draft 3.6 m.

Type: Cargo ship. MMSI: 311000611.

Date/timePositionNaut miles runAvg speedWind from/ knotsBaromVisibWave heightAir tempDewpointWater temp
2017-Dec-14 12:19N 45°11' E 036°29'0 0.0
2017-Dec-14 11:58N 45°11' E 036°29'0 0.0
2017-Dec-14 07:46N 45°11' E 036°29'0 0.0
2017-Dec-14 06:07N 45°11' E 036°29'0 0.0
2017-Dec-14 05:43N 45°11' E 036°29'0 0.2
2017-Dec-14 05:24N 45°11' E 036°29'1 3.0
2017-Dec-14 04:58N 45°10' E 036°29'412 8.9
2017-Dec-12 06:41N 41°01' E 028°60'2 9.3
2017-Dec-12 06:27N 40°59' E 028°60'3 6.1
2017-Dec-12 06:00N 40°56' E 028°59'2 4.2
2017-Dec-12 05:28N 40°57' E 028°56'2 0.0
2017-Dec-10 03:24N 40°58' E 028°55'1 3.0
2017-Dec-10 02:59N 40°59' E 028°57'2 4.5
2017-Dec-10 02:26N 40°56' E 028°58'4 8.7
2017-Dec-10 02:00N 40°53' E 028°54'4 8.8
2017-Dec-10 01:30N 40°51' E 028°50'  

Dump ship's entire track history